sensor_id;sensor_type;location;lat;lon;timestamp;P1;durP1;ratioP1;P2;durP2;ratioP2
48727;SDS011;34527;45.618;5.130;2023-02-05T00:00:06;19.20;;;13.88;;
48727;SDS011;34527;45.618;5.130;2023-02-05T00:02:32;18.13;;;13.65;;
48727;SDS011;34527;45.618;5.130;2023-02-05T00:04:58;19.23;;;13.80;;
48727;SDS011;34527;45.618;5.130;2023-02-05T00:07:24;17.30;;;13.63;;
48727;SDS011;34527;45.618;5.130;2023-02-05T00:09:50;18.02;;;13.20;;
48727;SDS011;34527;45.618;5.130;2023-02-05T00:12:15;17.38;;;12.98;;
48727;SDS011;34527;45.618;5.130;2023-02-05T00:14:41;17.58;;;13.75;;
48727;SDS011;34527;45.618;5.130;2023-02-05T00:17:07;18.80;;;13.15;;
48727;SDS011;34527;45.618;5.130;2023-02-05T00:19:32;19.65;;;13.02;;
48727;SDS011;34527;45.618;5.130;2023-02-05T00:21:58;16.30;;;13.02;;
48727;SDS011;34527;45.618;5.130;2023-02-05T00:24:24;16.85;;;12.38;;
48727;SDS011;34527;45.618;5.130;2023-02-05T00:26:49;17.65;;;12.77;;
48727;SDS011;34527;45.618;5.130;2023-02-05T00:29:15;17.02;;;11.52;;
48727;SDS011;34527;45.618;5.130;2023-02-05T00:31:40;15.50;;;12.05;;
48727;SDS011;34527;45.618;5.130;2023-02-05T00:34:06;17.15;;;11.00;;
48727;SDS011;34527;45.618;5.130;2023-02-05T00:36:32;15.45;;;11.68;;
48727;SDS011;34527;45.618;5.130;2023-02-05T00:38:57;16.05;;;11.45;;
48727;SDS011;34527;45.618;5.130;2023-02-05T00:41:23;15.88;;;12.30;;
48727;SDS011;34527;45.618;5.130;2023-02-05T00:43:48;15.20;;;11.55;;
48727;SDS011;34527;45.618;5.130;2023-02-05T00:46:14;14.88;;;11.75;;
48727;SDS011;34527;45.618;5.130;2023-02-05T00:48:41;17.33;;;11.50;;
48727;SDS011;34527;45.618;5.130;2023-02-05T00:51:07;16.98;;;12.13;;
48727;SDS011;34527;45.618;5.130;2023-02-05T00:53:33;15.15;;;11.20;;
48727;SDS011;34527;45.618;5.130;2023-02-05T00:55:59;17.52;;;12.20;;
48727;SDS011;34527;45.618;5.130;2023-02-05T00:58:25;16.02;;;11.43;;
48727;SDS011;34527;45.618;5.130;2023-02-05T01:00:51;13.13;;;10.68;;
48727;SDS011;34527;45.618;5.130;2023-02-05T01:03:18;13.32;;;10.70;;
48727;SDS011;34527;45.618;5.130;2023-02-05T01:05:44;14.30;;;10.52;;
48727;SDS011;34527;45.618;5.130;2023-02-05T01:08:10;12.65;;;9.77;;
48727;SDS011;34527;45.618;5.130;2023-02-05T01:10:37;13.20;;;9.95;;
48727;SDS011;34527;45.618;5.130;2023-02-05T01:13:06;13.23;;;9.95;;
48727;SDS011;34527;45.618;5.130;2023-02-05T01:15:33;13.20;;;10.30;;
48727;SDS011;34527;45.618;5.130;2023-02-05T01:17:59;12.60;;;9.40;;
48727;SDS011;34527;45.618;5.130;2023-02-05T01:20:25;14.15;;;10.43;;
48727;SDS011;34527;45.618;5.130;2023-02-05T01:22:50;14.70;;;10.52;;
48727;SDS011;34527;45.618;5.130;2023-02-05T01:25:16;14.13;;;10.40;;
48727;SDS011;34527;45.618;5.130;2023-02-05T01:27:42;13.23;;;10.95;;
48727;SDS011;34527;45.618;5.130;2023-02-05T01:30:08;14.65;;;10.88;;
48727;SDS011;34527;45.618;5.130;2023-02-05T01:32:35;13.38;;;10.63;;
48727;SDS011;34527;45.618;5.130;2023-02-05T01:35:01;15.88;;;10.30;;
48727;SDS011;34527;45.618;5.130;2023-02-05T01:37:27;13.77;;;10.45;;
48727;SDS011;34527;45.618;5.130;2023-02-05T01:39:53;13.90;;;11.05;;
48727;SDS011;34527;45.618;5.130;2023-02-05T01:42:22;14.57;;;11.00;;
48727;SDS011;34527;45.618;5.130;2023-02-05T01:47:46;15.68;;;10.35;;
48727;SDS011;34527;45.618;5.130;2023-02-05T01:50:12;15.38;;;10.82;;
48727;SDS011;34527;45.618;5.130;2023-02-05T01:52:39;13.52;;;10.50;;
48727;SDS011;34527;45.618;5.130;2023-02-05T01:55:04;16.98;;;10.02;;
48727;SDS011;34527;45.618;5.130;2023-02-05T01:57:32;16.77;;;10.50;;
48727;SDS011;34527;45.618;5.130;2023-02-05T01:59:58;15.32;;;11.20;;
48727;SDS011;34527;45.618;5.130;2023-02-05T02:02:24;15.05;;;11.02;;
48727;SDS011;34527;45.618;5.130;2023-02-05T02:04:54;16.02;;;11.05;;
48727;SDS011;34527;45.618;5.130;2023-02-05T02:07:22;13.90;;;10.65;;
48727;SDS011;34527;45.618;5.130;2023-02-05T02:09:49;14.82;;;10.60;;
48727;SDS011;34527;45.618;5.130;2023-02-05T02:12:17;13.52;;;10.15;;
48727;SDS011;34527;45.618;5.130;2023-02-05T02:14:47;13.00;;;9.43;;
48727;SDS011;34527;45.618;5.130;2023-02-05T02:17:15;12.63;;;9.95;;
48727;SDS011;34527;45.618;5.130;2023-02-05T02:19:43;14.00;;;10.10;;
48727;SDS011;34527;45.618;5.130;2023-02-05T02:28:12;13.43;;;10.35;;
48727;SDS011;34527;45.618;5.130;2023-02-05T02:30:43;13.60;;;10.60;;
48727;SDS011;34527;45.618;5.130;2023-02-05T02:33:24;13.05;;;10.00;;
48727;SDS011;34527;45.618;5.130;2023-02-05T02:38:54;16.50;;;10.18;;
48727;SDS011;34527;45.618;5.130;2023-02-05T02:41:36;17.40;;;10.00;;
48727;SDS011;34527;45.618;5.130;2023-02-05T02:44:09;13.07;;;9.75;;
48727;SDS011;34527;45.618;5.130;2023-02-05T02:46:39;13.95;;;10.07;;
48727;SDS011;34527;45.618;5.130;2023-02-05T02:49:10;13.05;;;9.80;;
48727;SDS011;34527;45.618;5.130;2023-02-05T02:51:39;12.88;;;9.35;;
48727;SDS011;34527;45.618;5.130;2023-02-05T02:54:07;12.43;;;10.40;;
48727;SDS011;34527;45.618;5.130;2023-02-05T02:56:36;14.13;;;9.88;;
48727;SDS011;34527;45.618;5.130;2023-02-05T02:59:06;14.15;;;10.10;;
48727;SDS011;34527;45.618;5.130;2023-02-05T03:01:36;13.27;;;11.02;;
48727;SDS011;34527;45.618;5.130;2023-02-05T03:04:05;15.38;;;10.70;;
48727;SDS011;34527;45.618;5.130;2023-02-05T03:06:45;13.60;;;10.27;;
48727;SDS011;34527;45.618;5.130;2023-02-05T03:09:20;12.93;;;9.35;;
48727;SDS011;34527;45.618;5.130;2023-02-05T03:11:54;15.95;;;10.32;;
48727;SDS011;34527;45.618;5.130;2023-02-05T03:14:19;14.25;;;10.57;;
48727;SDS011;34527;45.618;5.130;2023-02-05T03:16:45;13.77;;;10.43;;
48727;SDS011;34527;45.618;5.130;2023-02-05T03:19:11;15.18;;;10.60;;
48727;SDS011;34527;45.618;5.130;2023-02-05T03:21:45;15.38;;;9.98;;
48727;SDS011;34527;45.618;5.130;2023-02-05T03:24:15;14.93;;;9.77;;
48727;SDS011;34527;45.618;5.130;2023-02-05T03:26:41;12.70;;;9.48;;
48727;SDS011;34527;45.618;5.130;2023-02-05T03:29:14;13.15;;;9.50;;
48727;SDS011;34527;45.618;5.130;2023-02-05T03:31:45;15.05;;;10.30;;
48727;SDS011;34527;45.618;5.130;2023-02-05T03:42:33;16.75;;;10.43;;
48727;SDS011;34527;45.618;5.130;2023-02-05T03:48:03;14.60;;;10.13;;
48727;SDS011;34527;45.618;5.130;2023-02-05T03:53:22;14.30;;;10.23;;
48727;SDS011;34527;45.618;5.130;2023-02-05T03:56:06;16.03;;;9.63;;
48727;SDS011;34527;45.618;5.130;2023-02-05T03:58:39;14.63;;;9.93;;
48727;SDS011;34527;45.618;5.130;2023-02-05T04:01:08;13.82;;;9.15;;
48727;SDS011;34527;45.618;5.130;2023-02-05T04:03:35;14.55;;;9.10;;
48727;SDS011;34527;45.618;5.130;2023-02-05T04:06:02;14.30;;;9.43;;
48727;SDS011;34527;45.618;5.130;2023-02-05T04:08:28;13.27;;;9.43;;
48727;SDS011;34527;45.618;5.130;2023-02-05T04:10:54;15.55;;;10.23;;
48727;SDS011;34527;45.618;5.130;2023-02-05T04:13:20;12.48;;;8.75;;
48727;SDS011;34527;45.618;5.130;2023-02-05T04:15:47;12.40;;;8.98;;
48727;SDS011;34527;45.618;5.130;2023-02-05T04:18:14;13.88;;;9.43;;
48727;SDS011;34527;45.618;5.130;2023-02-05T04:20:39;13.70;;;9.23;;
48727;SDS011;34527;45.618;5.130;2023-02-05T04:23:05;13.02;;;9.73;;
48727;SDS011;34527;45.618;5.130;2023-02-05T04:25:31;14.93;;;9.75;;
48727;SDS011;34527;45.618;5.130;2023-02-05T04:27:56;16.20;;;9.80;;
48727;SDS011;34527;45.618;5.130;2023-02-05T04:30:22;13.55;;;10.57;;
48727;SDS011;34527;45.618;5.130;2023-02-05T04:32:47;16.75;;;9.75;;
48727;SDS011;34527;45.618;5.130;2023-02-05T04:35:13;16.75;;;10.02;;
48727;SDS011;34527;45.618;5.130;2023-02-05T04:37:39;16.13;;;9.90;;
48727;SDS011;34527;45.618;5.130;2023-02-05T04:40:05;18.83;;;10.98;;
48727;SDS011;34527;45.618;5.130;2023-02-05T04:42:31;21.83;;;11.02;;
48727;SDS011;34527;45.618;5.130;2023-02-05T04:44:56;18.25;;;10.65;;
48727;SDS011;34527;45.618;5.130;2023-02-05T04:47:22;16.60;;;10.85;;
48727;SDS011;34527;45.618;5.130;2023-02-05T04:49:48;16.20;;;10.52;;
48727;SDS011;34527;45.618;5.130;2023-02-05T04:52:13;19.23;;;11.05;;
48727;SDS011;34527;45.618;5.130;2023-02-05T04:54:39;17.30;;;10.80;;
48727;SDS011;34527;45.618;5.130;2023-02-05T04:57:04;16.05;;;11.30;;
48727;SDS011;34527;45.618;5.130;2023-02-05T04:59:30;18.95;;;11.10;;
48727;SDS011;34527;45.618;5.130;2023-02-05T05:01:56;18.08;;;11.10;;
48727;SDS011;34527;45.618;5.130;2023-02-05T05:04:22;19.85;;;11.43;;
48727;SDS011;34527;45.618;5.130;2023-02-05T05:06:48;16.13;;;11.23;;
48727;SDS011;34527;45.618;5.130;2023-02-05T05:09:14;17.55;;;10.65;;
48727;SDS011;34527;45.618;5.130;2023-02-05T05:11:39;17.20;;;11.52;;
48727;SDS011;34527;45.618;5.130;2023-02-05T05:14:05;18.58;;;11.32;;
48727;SDS011;34527;45.618;5.130;2023-02-05T05:16:31;17.23;;;11.60;;
48727;SDS011;34527;45.618;5.130;2023-02-05T05:18:56;15.48;;;11.18;;
48727;SDS011;34527;45.618;5.130;2023-02-05T05:21:22;18.17;;;10.98;;
48727;SDS011;34527;45.618;5.130;2023-02-05T05:23:47;19.02;;;11.77;;
48727;SDS011;34527;45.618;5.130;2023-02-05T05:26:13;18.63;;;11.98;;
48727;SDS011;34527;45.618;5.130;2023-02-05T05:28:39;15.52;;;10.80;;
48727;SDS011;34527;45.618;5.130;2023-02-05T05:31:09;15.90;;;11.38;;
48727;SDS011;34527;45.618;5.130;2023-02-05T05:33:37;16.98;;;11.88;;
48727;SDS011;34527;45.618;5.130;2023-02-05T05:36:03;18.02;;;11.55;;
48727;SDS011;34527;45.618;5.130;2023-02-05T05:38:30;20.92;;;12.10;;
48727;SDS011;34527;45.618;5.130;2023-02-05T05:40:55;22.70;;;12.02;;
48727;SDS011;34527;45.618;5.130;2023-02-05T05:43:40;18.80;;;11.63;;
48727;SDS011;34527;45.618;5.130;2023-02-05T05:46:11;21.17;;;12.90;;
48727;SDS011;34527;45.618;5.130;2023-02-05T05:48:49;22.92;;;13.13;;
48727;SDS011;34527;45.618;5.130;2023-02-05T05:51:16;20.38;;;12.88;;
48727;SDS011;34527;45.618;5.130;2023-02-05T05:53:43;22.98;;;13.38;;
48727;SDS011;34527;45.618;5.130;2023-02-05T05:56:09;20.20;;;13.77;;
48727;SDS011;34527;45.618;5.130;2023-02-05T05:58:34;23.48;;;13.80;;
48727;SDS011;34527;45.618;5.130;2023-02-05T06:01:00;22.23;;;13.77;;
48727;SDS011;34527;45.618;5.130;2023-02-05T06:03:26;24.63;;;13.85;;
48727;SDS011;34527;45.618;5.130;2023-02-05T06:05:51;20.30;;;14.15;;
48727;SDS011;34527;45.618;5.130;2023-02-05T06:08:17;22.02;;;14.57;;
48727;SDS011;34527;45.618;5.130;2023-02-05T06:10:43;22.50;;;13.95;;
48727;SDS011;34527;45.618;5.130;2023-02-05T06:13:09;22.50;;;14.10;;
48727;SDS011;34527;45.618;5.130;2023-02-05T06:15:34;25.42;;;14.82;;
48727;SDS011;34527;45.618;5.130;2023-02-05T06:18:00;23.65;;;14.25;;
48727;SDS011;34527;45.618;5.130;2023-02-05T06:20:26;20.73;;;14.65;;
48727;SDS011;34527;45.618;5.130;2023-02-05T06:22:51;24.35;;;14.23;;
48727;SDS011;34527;45.618;5.130;2023-02-05T06:25:17;22.88;;;15.10;;
48727;SDS011;34527;45.618;5.130;2023-02-05T06:27:43;24.75;;;15.18;;
48727;SDS011;34527;45.618;5.130;2023-02-05T06:30:09;25.98;;;15.95;;
48727;SDS011;34527;45.618;5.130;2023-02-05T06:32:35;26.98;;;15.45;;
48727;SDS011;34527;45.618;5.130;2023-02-05T06:35:00;26.65;;;15.90;;
48727;SDS011;34527;45.618;5.130;2023-02-05T06:37:26;24.25;;;15.95;;
48727;SDS011;34527;45.618;5.130;2023-02-05T06:39:53;25.02;;;15.27;;
48727;SDS011;34527;45.618;5.130;2023-02-05T06:42:19;25.63;;;16.13;;
48727;SDS011;34527;45.618;5.130;2023-02-05T06:44:45;26.55;;;15.25;;
48727;SDS011;34527;45.618;5.130;2023-02-05T06:47:10;23.58;;;15.02;;
48727;SDS011;34527;45.618;5.130;2023-02-05T06:49:36;22.33;;;15.13;;
48727;SDS011;34527;45.618;5.130;2023-02-05T06:52:02;25.83;;;15.50;;
48727;SDS011;34527;45.618;5.130;2023-02-05T06:54:28;27.35;;;15.70;;
48727;SDS011;34527;45.618;5.130;2023-02-05T06:56:54;24.27;;;15.40;;
48727;SDS011;34527;45.618;5.130;2023-02-05T06:59:20;27.50;;;17.50;;
48727;SDS011;34527;45.618;5.130;2023-02-05T07:01:45;24.40;;;16.00;;
48727;SDS011;34527;45.618;5.130;2023-02-05T07:04:11;26.20;;;16.70;;
48727;SDS011;34527;45.618;5.130;2023-02-05T07:06:37;29.15;;;16.85;;
48727;SDS011;34527;45.618;5.130;2023-02-05T07:09:02;31.88;;;18.60;;
48727;SDS011;34527;45.618;5.130;2023-02-05T07:11:28;27.75;;;17.83;;
48727;SDS011;34527;45.618;5.130;2023-02-05T07:13:54;30.20;;;18.88;;
48727;SDS011;34527;45.618;5.130;2023-02-05T07:16:19;31.08;;;18.63;;
48727;SDS011;34527;45.618;5.130;2023-02-05T07:18:45;29.17;;;18.05;;
48727;SDS011;34527;45.618;5.130;2023-02-05T07:21:12;55.13;;;17.48;;
48727;SDS011;34527;45.618;5.130;2023-02-05T07:23:42;27.08;;;17.80;;
48727;SDS011;34527;45.618;5.130;2023-02-05T07:26:09;31.90;;;17.55;;
48727;SDS011;34527;45.618;5.130;2023-02-05T07:28:36;31.15;;;16.75;;
48727;SDS011;34527;45.618;5.130;2023-02-05T07:31:02;34.10;;;19.13;;
48727;SDS011;34527;45.618;5.130;2023-02-05T07:33:30;31.05;;;18.85;;
48727;SDS011;34527;45.618;5.130;2023-02-05T07:35:55;28.33;;;18.30;;
48727;SDS011;34527;45.618;5.130;2023-02-05T07:38:21;31.65;;;18.33;;
48727;SDS011;34527;45.618;5.130;2023-02-05T07:40:49;28.98;;;18.45;;
48727;SDS011;34527;45.618;5.130;2023-02-05T07:43:15;30.23;;;18.63;;
48727;SDS011;34527;45.618;5.130;2023-02-05T07:45:40;29.38;;;18.05;;
48727;SDS011;34527;45.618;5.130;2023-02-05T07:48:06;28.70;;;17.55;;
48727;SDS011;34527;45.618;5.130;2023-02-05T07:50:32;28.08;;;17.50;;
48727;SDS011;34527;45.618;5.130;2023-02-05T07:52:57;27.48;;;16.73;;
48727;SDS011;34527;45.618;5.130;2023-02-05T07:55:23;29.02;;;18.63;;
48727;SDS011;34527;45.618;5.130;2023-02-05T07:57:48;28.90;;;18.25;;
48727;SDS011;34527;45.618;5.130;2023-02-05T08:00:14;25.00;;;16.48;;
48727;SDS011;34527;45.618;5.130;2023-02-05T08:02:40;23.98;;;16.20;;
48727;SDS011;34527;45.618;5.130;2023-02-05T08:05:06;25.75;;;15.45;;
48727;SDS011;34527;45.618;5.130;2023-02-05T08:07:32;27.48;;;16.80;;
48727;SDS011;34527;45.618;5.130;2023-02-05T08:09:57;24.38;;;15.75;;
48727;SDS011;34527;45.618;5.130;2023-02-05T08:12:23;25.20;;;15.88;;
48727;SDS011;34527;45.618;5.130;2023-02-05T08:14:48;21.85;;;15.88;;
48727;SDS011;34527;45.618;5.130;2023-02-05T08:17:14;20.58;;;15.23;;
48727;SDS011;34527;45.618;5.130;2023-02-05T08:19:40;18.73;;;14.48;;
48727;SDS011;34527;45.618;5.130;2023-02-05T08:22:06;22.08;;;15.25;;
48727;SDS011;34527;45.618;5.130;2023-02-05T08:24:31;21.30;;;14.50;;
48727;SDS011;34527;45.618;5.130;2023-02-05T08:26:57;19.95;;;13.77;;
48727;SDS011;34527;45.618;5.130;2023-02-05T08:29:23;20.38;;;14.35;;
48727;SDS011;34527;45.618;5.130;2023-02-05T08:31:49;20.80;;;14.77;;
48727;SDS011;34527;45.618;5.130;2023-02-05T08:34:14;26.52;;;14.23;;
48727;SDS011;34527;45.618;5.130;2023-02-05T08:36:40;23.73;;;13.80;;
48727;SDS011;34527;45.618;5.130;2023-02-05T08:39:06;21.73;;;13.82;;
48727;SDS011;34527;45.618;5.130;2023-02-05T08:41:31;19.13;;;13.20;;
48727;SDS011;34527;45.618;5.130;2023-02-05T08:43:57;23.35;;;15.05;;
48727;SDS011;34527;45.618;5.130;2023-02-05T08:46:23;19.33;;;12.57;;
48727;SDS011;34527;45.618;5.130;2023-02-05T08:48:50;19.10;;;12.93;;
48727;SDS011;34527;45.618;5.130;2023-02-05T08:51:16;23.02;;;13.38;;
48727;SDS011;34527;45.618;5.130;2023-02-05T08:53:43;21.25;;;13.80;;
48727;SDS011;34527;45.618;5.130;2023-02-05T08:56:09;23.90;;;13.20;;
48727;SDS011;34527;45.618;5.130;2023-02-05T08:58:37;18.27;;;12.15;;
48727;SDS011;34527;45.618;5.130;2023-02-05T09:01:04;19.55;;;13.32;;
48727;SDS011;34527;45.618;5.130;2023-02-05T09:03:32;24.27;;;13.45;;
48727;SDS011;34527;45.618;5.130;2023-02-05T09:05:58;20.27;;;12.90;;
48727;SDS011;34527;45.618;5.130;2023-02-05T09:08:25;17.40;;;12.20;;
48727;SDS011;34527;45.618;5.130;2023-02-05T09:10:52;18.40;;;12.57;;
48727;SDS011;34527;45.618;5.130;2023-02-05T09:13:17;22.20;;;12.35;;
48727;SDS011;34527;45.618;5.130;2023-02-05T09:15:44;20.63;;;13.02;;
48727;SDS011;34527;45.618;5.130;2023-02-05T09:18:11;18.55;;;12.95;;
48727;SDS011;34527;45.618;5.130;2023-02-05T09:20:40;17.95;;;11.85;;
48727;SDS011;34527;45.618;5.130;2023-02-05T09:23:10;17.75;;;11.73;;
48727;SDS011;34527;45.618;5.130;2023-02-05T09:25:37;18.95;;;11.48;;
48727;SDS011;34527;45.618;5.130;2023-02-05T09:28:04;16.77;;;11.63;;
48727;SDS011;34527;45.618;5.130;2023-02-05T09:30:36;20.50;;;12.90;;
48727;SDS011;34527;45.618;5.130;2023-02-05T09:33:03;17.95;;;11.43;;
48727;SDS011;34527;45.618;5.130;2023-02-05T09:35:30;16.92;;;11.95;;
48727;SDS011;34527;45.618;5.130;2023-02-05T09:37:56;22.77;;;13.25;;
48727;SDS011;34527;45.618;5.130;2023-02-05T09:40:23;17.10;;;10.95;;
48727;SDS011;34527;45.618;5.130;2023-02-05T09:42:56;18.08;;;11.40;;
48727;SDS011;34527;45.618;5.130;2023-02-05T09:51:42;16.67;;;10.68;;
48727;SDS011;34527;45.618;5.130;2023-02-05T09:54:17;15.55;;;10.32;;
48727;SDS011;34527;45.618;5.130;2023-02-05T09:56:50;23.33;;;11.32;;
48727;SDS011;34527;45.618;5.130;2023-02-05T09:59:20;18.85;;;10.90;;
48727;SDS011;34527;45.618;5.130;2023-02-05T10:01:54;18.20;;;10.48;;
48727;SDS011;34527;45.618;5.130;2023-02-05T10:04:22;22.88;;;11.18;;
48727;SDS011;34527;45.618;5.130;2023-02-05T10:15:18;14.32;;;8.73;;
48727;SDS011;34527;45.618;5.130;2023-02-05T10:23:35;16.40;;;8.82;;
48727;SDS011;34527;45.618;5.130;2023-02-05T10:26:14;16.33;;;7.43;;
48727;SDS011;34527;45.618;5.130;2023-02-05T10:34:15;11.30;;;7.15;;
48727;SDS011;34527;45.618;5.130;2023-02-05T10:36:44;13.73;;;6.85;;
48727;SDS011;34527;45.618;5.130;2023-02-05T10:39:15;12.68;;;6.20;;
48727;SDS011;34527;45.618;5.130;2023-02-05T10:42:05;14.63;;;7.28;;
48727;SDS011;34527;45.618;5.130;2023-02-05T10:44:43;12.38;;;6.38;;
48727;SDS011;34527;45.618;5.130;2023-02-05T10:47:14;11.20;;;6.18;;
48727;SDS011;34527;45.618;5.130;2023-02-05T10:49:47;13.57;;;6.78;;
48727;SDS011;34527;45.618;5.130;2023-02-05T10:52:19;11.47;;;5.87;;
48727;SDS011;34527;45.618;5.130;2023-02-05T10:54:45;15.02;;;5.55;;
48727;SDS011;34527;45.618;5.130;2023-02-05T10:57:15;11.45;;;5.57;;
48727;SDS011;34527;45.618;5.130;2023-02-05T11:02:19;13.65;;;5.40;;
48727;SDS011;34527;45.618;5.130;2023-02-05T11:07:13;10.68;;;4.97;;
48727;SDS011;34527;45.618;5.130;2023-02-05T11:09:49;9.43;;;4.80;;
48727;SDS011;34527;45.618;5.130;2023-02-05T11:12:16;11.50;;;4.88;;
48727;SDS011;34527;45.618;5.130;2023-02-05T11:14:57;10.13;;;5.25;;
48727;SDS011;34527;45.618;5.130;2023-02-05T11:17:32;10.88;;;4.72;;
48727;SDS011;34527;45.618;5.130;2023-02-05T11:22:45;10.52;;;4.72;;
48727;SDS011;34527;45.618;5.130;2023-02-05T11:27:49;9.73;;;4.85;;
48727;SDS011;34527;45.618;5.130;2023-02-05T11:30:24;11.10;;;5.03;;
48727;SDS011;34527;45.618;5.130;2023-02-05T11:32:50;10.65;;;3.92;;
48727;SDS011;34527;45.618;5.130;2023-02-05T11:37:54;9.95;;;4.55;;
48727;SDS011;34527;45.618;5.130;2023-02-05T11:40:21;11.73;;;4.43;;
48727;SDS011;34527;45.618;5.130;2023-02-05T11:42:53;9.07;;;4.45;;
48727;SDS011;34527;45.618;5.130;2023-02-05T11:45:26;9.75;;;3.53;;
48727;SDS011;34527;45.618;5.130;2023-02-05T11:47:53;6.55;;;3.50;;
48727;SDS011;34527;45.618;5.130;2023-02-05T11:50:23;5.60;;;3.50;;
48727;SDS011;34527;45.618;5.130;2023-02-05T11:52:51;8.93;;;3.30;;
48727;SDS011;34527;45.618;5.130;2023-02-05T11:55:24;6.13;;;3.13;;
48727;SDS011;34527;45.618;5.130;2023-02-05T11:58:04;5.07;;;3.17;;
48727;SDS011;34527;45.618;5.130;2023-02-05T12:00:49;5.07;;;2.65;;
48727;SDS011;34527;45.618;5.130;2023-02-05T12:03:16;3.58;;;2.35;;
48727;SDS011;34527;45.618;5.130;2023-02-05T12:05:43;6.75;;;2.72;;
48727;SDS011;34527;45.618;5.130;2023-02-05T12:08:19;7.30;;;3.10;;
48727;SDS011;34527;45.618;5.130;2023-02-05T12:21:40;5.93;;;3.63;;
48727;SDS011;34527;45.618;5.130;2023-02-05T12:26:45;6.32;;;3.63;;
48727;SDS011;34527;45.618;5.130;2023-02-05T12:32:32;9.27;;;4.30;;
48727;SDS011;34527;45.618;5.130;2023-02-05T12:37:51;8.07;;;4.63;;
48727;SDS011;34527;45.618;5.130;2023-02-05T12:40:40;7.57;;;4.30;;
48727;SDS011;34527;45.618;5.130;2023-02-05T12:57:18;9.30;;;4.20;;
48727;SDS011;34527;45.618;5.130;2023-02-05T13:02:22;7.15;;;3.17;;
48727;SDS011;34527;45.618;5.130;2023-02-05T13:08:02;4.88;;;3.63;;
48727;SDS011;34527;45.618;5.130;2023-02-05T13:10:38;6.88;;;3.65;;
48727;SDS011;34527;45.618;5.130;2023-02-05T13:13:13;3.85;;;3.38;;
48727;SDS011;34527;45.618;5.130;2023-02-05T13:15:43;5.22;;;3.78;;
48727;SDS011;34527;45.618;5.130;2023-02-05T13:18:19;5.63;;;3.90;;
48727;SDS011;34527;45.618;5.130;2023-02-05T13:20:54;4.50;;;3.53;;
48727;SDS011;34527;45.618;5.130;2023-02-05T13:23:41;7.13;;;4.18;;
48727;SDS011;34527;45.618;5.130;2023-02-05T13:26:29;5.72;;;4.10;;
48727;SDS011;34527;45.618;5.130;2023-02-05T13:29:18;8.45;;;4.57;;
48727;SDS011;34527;45.618;5.130;2023-02-05T13:31:48;6.78;;;4.25;;
48727;SDS011;34527;45.618;5.130;2023-02-05T13:34:20;8.57;;;4.82;;
48727;SDS011;34527;45.618;5.130;2023-02-05T13:39:43;10.63;;;4.55;;
48727;SDS011;34527;45.618;5.130;2023-02-05T13:42:34;7.60;;;4.95;;
48727;SDS011;34527;45.618;5.130;2023-02-05T13:47:59;7.53;;;5.05;;
48727;SDS011;34527;45.618;5.130;2023-02-05T13:50:57;9.68;;;5.63;;
48727;SDS011;34527;45.618;5.130;2023-02-05T13:59:00;11.55;;;7.10;;
48727;SDS011;34527;45.618;5.130;2023-02-05T14:01:51;9.07;;;6.95;;
48727;SDS011;34527;45.618;5.130;2023-02-05T14:07:21;11.43;;;6.85;;
48727;SDS011;34527;45.618;5.130;2023-02-05T14:09:43;12.40;;;7.47;;
48727;SDS011;34527;45.618;5.130;2023-02-05T14:12:27;12.75;;;6.97;;
48727;SDS011;34527;45.618;5.130;2023-02-05T14:22:54;15.77;;;8.07;;
48727;SDS011;34527;45.618;5.130;2023-02-05T14:28:46;12.73;;;7.63;;
48727;SDS011;34527;45.618;5.130;2023-02-05T14:38:53;15.32;;;8.60;;
48727;SDS011;34527;45.618;5.130;2023-02-05T14:41:42;13.73;;;8.05;;
48727;SDS011;34527;45.618;5.130;2023-02-05T14:47:00;13.43;;;8.18;;
48727;SDS011;34527;45.618;5.130;2023-02-05T14:51:59;11.88;;;7.55;;
48727;SDS011;34527;45.618;5.130;2023-02-05T14:54:28;12.38;;;7.25;;
48727;SDS011;34527;45.618;5.130;2023-02-05T14:59:57;10.27;;;7.25;;
48727;SDS011;34527;45.618;5.130;2023-02-05T15:05:32;10.00;;;6.50;;
48727;SDS011;34527;45.618;5.130;2023-02-05T15:08:13;9.85;;;6.43;;
48727;SDS011;34527;45.618;5.130;2023-02-05T15:13:32;9.05;;;5.43;;
48727;SDS011;34527;45.618;5.130;2023-02-05T15:16:20;10.75;;;5.80;;
48727;SDS011;34527;45.618;5.130;2023-02-05T15:18:54;10.23;;;5.75;;
48727;SDS011;34527;45.618;5.130;2023-02-05T15:21:30;11.15;;;6.20;;
48727;SDS011;34527;45.618;5.130;2023-02-05T15:26:48;8.63;;;5.63;;
48727;SDS011;34527;45.618;5.130;2023-02-05T15:29:24;9.00;;;4.50;;
48727;SDS011;34527;45.618;5.130;2023-02-05T15:31:54;7.25;;;5.22;;
48727;SDS011;34527;45.618;5.130;2023-02-05T15:34:38;10.50;;;5.43;;
48727;SDS011;34527;45.618;5.130;2023-02-05T15:37:17;9.07;;;4.78;;
48727;SDS011;34527;45.618;5.130;2023-02-05T15:39:49;8.13;;;4.80;;
48727;SDS011;34527;45.618;5.130;2023-02-05T15:42:19;6.45;;;4.75;;
48727;SDS011;34527;45.618;5.130;2023-02-05T15:44:55;7.75;;;4.97;;
48727;SDS011;34527;45.618;5.130;2023-02-05T15:47:21;6.10;;;4.35;;
48727;SDS011;34527;45.618;5.130;2023-02-05T15:49:49;8.73;;;4.85;;
48727;SDS011;34527;45.618;5.130;2023-02-05T15:54:49;7.50;;;4.30;;
48727;SDS011;34527;45.618;5.130;2023-02-05T15:57:19;6.82;;;4.25;;
48727;SDS011;34527;45.618;5.130;2023-02-05T15:59:53;6.57;;;3.88;;
48727;SDS011;34527;45.618;5.130;2023-02-05T16:02:21;7.18;;;4.90;;
48727;SDS011;34527;45.618;5.130;2023-02-05T16:04:51;5.15;;;3.92;;
48727;SDS011;34527;45.618;5.130;2023-02-05T16:07:23;5.57;;;4.15;;
48727;SDS011;34527;45.618;5.130;2023-02-05T16:09:52;6.25;;;4.45;;
48727;SDS011;34527;45.618;5.130;2023-02-05T16:12:20;7.07;;;4.57;;
48727;SDS011;34527;45.618;5.130;2023-02-05T16:14:55;6.85;;;4.70;;
48727;SDS011;34527;45.618;5.130;2023-02-05T16:17:46;8.23;;;4.78;;
48727;SDS011;34527;45.618;5.130;2023-02-05T16:22:55;10.20;;;4.88;;
48727;SDS011;34527;45.618;5.130;2023-02-05T16:25:50;8.05;;;5.00;;
48727;SDS011;34527;45.618;5.130;2023-02-05T16:28:40;6.32;;;4.35;;
48727;SDS011;34527;45.618;5.130;2023-02-05T16:31:06;8.35;;;4.70;;
48727;SDS011;34527;45.618;5.130;2023-02-05T16:33:40;8.48;;;5.47;;
48727;SDS011;34527;45.618;5.130;2023-02-05T16:36:16;10.85;;;4.78;;
48727;SDS011;34527;45.618;5.130;2023-02-05T16:38:49;7.43;;;4.95;;
48727;SDS011;34527;45.618;5.130;2023-02-05T16:43:53;11.48;;;5.40;;
48727;SDS011;34527;45.618;5.130;2023-02-05T16:46:28;7.00;;;5.20;;
48727;SDS011;34527;45.618;5.130;2023-02-05T16:48:56;8.57;;;5.65;;
48727;SDS011;34527;45.618;5.130;2023-02-05T16:56:43;9.13;;;6.38;;
48727;SDS011;34527;45.618;5.130;2023-02-05T16:59:27;8.90;;;7.05;;
48727;SDS011;34527;45.618;5.130;2023-02-05T17:02:04;11.10;;;7.03;;
48727;SDS011;34527;45.618;5.130;2023-02-05T17:04:34;12.82;;;6.80;;
48727;SDS011;34527;45.618;5.130;2023-02-05T17:07:02;14.82;;;8.40;;
48727;SDS011;34527;45.618;5.130;2023-02-05T17:09:39;13.48;;;9.13;;
48727;SDS011;34527;45.618;5.130;2023-02-05T17:15:08;13.02;;;8.30;;
48727;SDS011;34527;45.618;5.130;2023-02-05T17:17:49;12.13;;;8.45;;
48727;SDS011;34527;45.618;5.130;2023-02-05T17:25:28;13.30;;;9.52;;
48727;SDS011;34527;45.618;5.130;2023-02-05T17:27:57;14.52;;;9.48;;
48727;SDS011;34527;45.618;5.130;2023-02-05T17:30:22;14.98;;;9.27;;
48727;SDS011;34527;45.618;5.130;2023-02-05T17:32:48;11.98;;;9.30;;
48727;SDS011;34527;45.618;5.130;2023-02-05T17:35:15;15.30;;;10.02;;